createdAt,value
2019-02-06T00:00:36.533Z,0.00
2019-02-06T00:01:36.543Z,0.00
2019-02-06T00:02:36.544Z,0.00
2019-02-06T00:03:36.502Z,0.00
2019-02-06T00:04:36.498Z,0.00
2019-02-06T00:05:36.495Z,0.00
2019-02-06T00:06:36.491Z,0.00
2019-02-06T00:07:36.477Z,0.00
2019-02-06T00:08:36.565Z,0.00
2019-02-06T00:09:36.446Z,0.00
2019-02-06T00:10:36.441Z,0.00
2019-02-06T00:11:36.451Z,0.00
2019-02-06T00:12:36.415Z,0.00
2019-02-06T00:13:36.399Z,0.00
2019-02-06T00:14:36.457Z,0.00
2019-02-06T00:15:36.375Z,0.00
2019-02-06T00:16:36.397Z,0.00
2019-02-06T00:17:36.375Z,0.00
2019-02-06T00:18:36.458Z,0.00
2019-02-06T00:19:36.349Z,0.00
2019-02-06T00:20:36.344Z,0.00
2019-02-06T00:21:36.323Z,0.00
2019-02-06T00:22:36.412Z,0.00
2019-02-06T00:23:36.346Z,0.00
2019-02-06T00:24:36.315Z,0.00
2019-02-06T00:25:36.297Z,0.00
2019-02-06T00:26:36.294Z,0.00
2019-02-06T00:27:36.255Z,0.00
2019-02-06T00:28:36.355Z,0.00
2019-02-06T00:29:36.249Z,0.00
2019-02-06T00:30:36.238Z,0.00
2019-02-06T00:31:36.234Z,0.00
2019-02-06T00:32:36.248Z,0.00
2019-02-06T00:33:36.231Z,0.00
2019-02-06T00:34:36.183Z,0.00
2019-02-06T00:35:36.195Z,0.00
2019-02-06T00:36:36.159Z,0.00
2019-02-06T00:37:36.167Z,0.00
2019-02-06T00:38:36.150Z,0.00
2019-02-06T00:39:36.130Z,0.00
2019-02-06T00:40:36.200Z,0.00
2019-02-06T00:41:36.211Z,0.00
2019-02-06T00:42:36.119Z,0.00
2019-02-06T00:43:36.117Z,0.00
2019-02-06T00:44:36.082Z,0.00
2019-02-06T00:45:36.083Z,0.00
2019-02-06T00:46:36.078Z,0.00
2019-02-06T00:47:36.051Z,0.00
2019-02-06T00:48:36.121Z,0.00
2019-02-06T00:49:36.039Z,0.00
2019-02-06T00:50:36.253Z,0.00
2019-02-06T00:51:36.006Z,0.00
2019-02-06T00:52:35.996Z,0.00
2019-02-06T00:53:36.014Z,0.00
2019-02-06T00:54:35.983Z,0.00
2019-02-06T00:55:36.042Z,0.00
2019-02-06T00:56:35.958Z,0.00
2019-02-06T00:57:35.938Z,0.00
2019-02-06T00:58:35.942Z,0.00
2019-02-06T00:59:35.922Z,0.00
2019-02-06T01:00:35.972Z,0.00
2019-02-06T01:01:35.930Z,0.00
2019-02-06T01:02:36.570Z,0.00
2019-02-06T01:03:35.981Z,0.00
2019-02-06T01:04:35.872Z,0.00
2019-02-06T01:05:38.620Z,0.00
2019-02-06T01:06:35.858Z,0.00
2019-02-06T01:07:35.859Z,0.00
2019-02-06T01:08:35.860Z,0.00
2019-02-06T01:09:35.815Z,0.00
2019-02-06T01:10:35.821Z,0.00
2019-02-06T01:11:35.854Z,0.00
2019-02-06T01:12:35.789Z,0.00
2019-02-06T01:13:35.769Z,0.00
2019-02-06T01:14:35.753Z,0.00
2019-02-06T01:15:35.776Z,0.00
2019-02-06T01:16:35.743Z,0.00
2019-02-06T01:17:35.837Z,0.00
2019-02-06T01:18:35.720Z,0.00
2019-02-06T01:19:35.704Z,0.00
2019-02-06T01:20:35.711Z,0.00
2019-02-06T01:21:35.677Z,0.00
2019-02-06T01:22:35.689Z,0.00
2019-02-06T01:23:35.727Z,0.00
2019-02-06T01:24:36.676Z,0.00
2019-02-06T01:25:35.639Z,0.00
2019-02-06T01:26:35.666Z,0.00
2019-02-06T01:27:35.621Z,0.00
2019-02-06T01:28:35.605Z,0.00
2019-02-06T01:29:35.624Z,0.00
2019-02-06T01:30:35.595Z,0.00
2019-02-06T01:31:35.574Z,0.00
2019-02-06T01:32:35.950Z,0.00
2019-02-06T01:33:35.553Z,0.00
2019-02-06T01:34:35.555Z,0.00
2019-02-06T01:35:35.531Z,0.00
2019-02-06T01:36:35.544Z,0.00
2019-02-06T01:37:35.518Z,0.00
2019-02-06T01:38:35.627Z,0.00
2019-02-06T01:39:35.507Z,0.00
2019-02-06T01:40:35.487Z,0.00
2019-02-06T01:41:35.481Z,0.00
2019-02-06T01:42:35.513Z,0.00
2019-02-06T01:43:35.451Z,0.00
2019-02-06T01:44:35.469Z,0.00
2019-02-06T01:45:35.438Z,0.00
2019-02-06T01:46:35.490Z,0.00
2019-02-06T01:47:35.407Z,0.00
2019-02-06T01:48:35.416Z,0.00
2019-02-06T01:49:35.400Z,0.00
2019-02-06T01:50:35.388Z,0.00
2019-02-06T01:51:35.369Z,0.00
2019-02-06T01:52:35.355Z,0.00
2019-02-06T01:53:35.426Z,0.00
2019-02-06T01:54:35.344Z,0.00
2019-02-06T01:55:35.595Z,0.00
2019-02-06T01:56:35.312Z,0.00
2019-02-06T01:57:35.317Z,0.00
2019-02-06T01:58:35.321Z,0.00
2019-02-06T01:59:35.287Z,0.00
2019-02-06T02:00:35.595Z,0.00
2019-02-06T02:01:35.263Z,0.00
2019-02-06T02:02:35.259Z,0.00
2019-02-06T02:03:35.236Z,0.00
2019-02-06T02:04:35.321Z,0.00
2019-02-06T02:05:37.819Z,0.00
2019-02-06T02:06:35.226Z,0.00
2019-02-06T02:07:35.250Z,0.00
2019-02-06T02:08:35.188Z,0.00
2019-02-06T02:09:35.171Z,0.00
2019-02-06T02:10:35.166Z,0.00
2019-02-06T02:11:35.218Z,0.00
2019-02-06T02:12:35.140Z,0.00
2019-02-06T02:13:35.138Z,0.00
2019-02-06T02:14:35.338Z,0.00
2019-02-06T02:15:35.130Z,0.00
2019-02-06T02:16:35.110Z,0.00
2019-02-06T02:17:35.182Z,0.00
2019-02-06T02:18:35.083Z,0.00
2019-02-06T02:19:35.074Z,0.00
2019-02-06T02:20:35.068Z,0.00
2019-02-06T02:21:35.051Z,0.00
2019-02-06T02:22:35.068Z,0.00
2019-02-06T02:23:35.092Z,0.00
2019-02-06T02:24:35.036Z,0.00
2019-02-06T02:25:35.021Z,0.00
2019-02-06T02:26:35.128Z,0.00
2019-02-06T02:27:34.991Z,0.00
2019-02-06T02:28:34.980Z,0.00
2019-02-06T02:29:34.987Z,0.00
2019-02-06T02:30:34.955Z,0.00
2019-02-06T02:31:34.971Z,0.00
2019-02-06T02:32:34.928Z,0.00
2019-02-06T02:33:34.935Z,0.00
2019-02-06T02:34:34.978Z,0.00
2019-02-06T02:35:35.125Z,0.00
2019-02-06T02:36:34.897Z,0.00
2019-02-06T02:37:34.916Z,0.00
2019-02-06T02:38:34.879Z,0.00
2019-02-06T02:39:34.882Z,0.00
2019-02-06T02:40:34.856Z,0.00
2019-02-06T02:41:34.854Z,0.00
2019-02-06T02:42:34.827Z,0.00
2019-02-06T02:43:34.964Z,0.00
2019-02-06T02:44:34.835Z,0.00
2019-02-06T02:45:34.808Z,0.00
2019-02-06T02:46:34.783Z,0.00
2019-02-06T02:47:34.775Z,0.00
2019-02-06T02:48:34.768Z,0.00
2019-02-06T02:49:34.779Z,0.00
2019-02-06T02:50:34.744Z,0.00
2019-02-06T02:51:34.735Z,0.00
2019-02-06T02:52:34.790Z,0.00
2019-02-06T02:53:34.708Z,0.00
2019-02-06T02:54:34.699Z,0.00
2019-02-06T02:55:35.094Z,0.00
2019-02-06T02:56:34.735Z,0.00
2019-02-06T02:57:34.671Z,0.00
2019-02-06T02:58:34.699Z,0.00
2019-02-06T02:59:34.681Z,0.00
2019-02-06T03:00:34.680Z,0.00
2019-02-06T03:01:34.640Z,0.00
2019-02-06T03:02:34.632Z,0.00
2019-02-06T03:03:34.604Z,0.00
2019-02-06T03:04:34.610Z,0.00
2019-02-06T03:05:34.643Z,0.00
2019-02-06T03:06:34.578Z,0.00
2019-02-06T03:07:34.568Z,0.00
2019-02-06T03:08:34.558Z,0.00
2019-02-06T03:09:34.541Z,0.00
2019-02-06T03:10:34.553Z,0.00
2019-02-06T03:11:34.566Z,0.00
2019-02-06T03:12:34.513Z,0.00
2019-02-06T03:13:34.515Z,0.00
2019-02-06T03:14:34.494Z,0.00
2019-02-06T03:15:34.489Z,0.00
2019-02-06T03:16:34.508Z,0.00
2019-02-06T03:17:34.549Z,0.00
2019-02-06T03:18:34.512Z,0.00
2019-02-06T03:19:34.438Z,0.00
2019-02-06T03:20:34.426Z,0.00
2019-02-06T03:21:34.427Z,0.00
2019-02-06T03:22:34.441Z,0.00
2019-02-06T03:23:34.395Z,0.00
2019-02-06T03:24:34.411Z,0.00
2019-02-06T03:25:34.427Z,0.00
2019-02-06T03:26:34.371Z,0.00
2019-02-06T03:27:34.374Z,0.00
2019-02-06T03:28:34.357Z,0.00
2019-02-06T03:29:34.373Z,0.00
2019-02-06T03:30:34.325Z,0.00
2019-02-06T03:31:34.318Z,0.00
2019-02-06T03:32:34.339Z,0.00
2019-02-06T03:33:34.293Z,0.00
2019-02-06T03:34:34.315Z,0.00
2019-02-06T03:35:34.273Z,0.00
2019-02-06T03:36:40.712Z,0.00
2019-02-06T03:37:35.256Z,0.00
2019-02-06T03:38:34.253Z,0.00
2019-02-06T03:39:34.268Z,0.00
2019-02-06T03:40:34.290Z,0.00
2019-02-06T03:41:34.209Z,0.00
2019-02-06T03:42:34.199Z,0.00
2019-02-06T03:43:34.183Z,0.00
2019-02-06T03:44:34.204Z,0.00
2019-02-06T03:45:34.174Z,0.00
2019-02-06T03:46:34.190Z,0.00
2019-02-06T03:47:34.151Z,0.00
2019-02-06T03:48:34.132Z,0.00
2019-02-06T03:49:34.130Z,0.00
2019-02-06T03:50:34.128Z,0.00
2019-02-06T03:51:34.116Z,0.00
2019-02-06T03:52:34.087Z,0.00
2019-02-06T03:53:34.134Z,0.00
2019-02-06T03:54:34.082Z,0.00
2019-02-06T03:55:34.057Z,0.00
2019-02-06T03:56:34.066Z,0.00
2019-02-06T03:57:34.048Z,0.00
2019-02-06T03:58:34.028Z,0.00
2019-02-06T03:59:34.100Z,0.00
2019-02-06T04:00:34.027Z,0.00
2019-02-06T04:01:34.010Z,0.00
2019-02-06T04:02:33.998Z,0.00
2019-02-06T04:03:33.985Z,0.00
2019-02-06T04:04:33.965Z,0.00
2019-02-06T04:05:34.029Z,0.00
2019-02-06T04:06:33.958Z,0.00
2019-02-06T04:07:33.938Z,0.00
2019-02-06T04:08:33.928Z,0.00
2019-02-06T04:09:33.924Z,0.00
2019-02-06T04:10:33.929Z,0.00
2019-02-06T04:11:33.920Z,0.00
2019-02-06T04:12:33.889Z,0.00
2019-02-06T04:13:33.871Z,0.00
2019-02-06T04:14:33.954Z,0.00
2019-02-06T04:15:33.862Z,0.00
2019-02-06T04:16:33.847Z,0.00
2019-02-06T04:17:33.840Z,0.00
2019-02-06T04:18:33.822Z,0.00
2019-02-06T04:19:33.807Z,0.00
2019-02-06T04:20:33.826Z,0.00
2019-02-06T04:21:33.795Z,0.00
2019-02-06T04:22:33.833Z,0.00
2019-02-06T04:23:33.769Z,0.00
2019-02-06T04:24:33.753Z,0.00
2019-02-06T04:25:33.786Z,0.00
2019-02-06T04:26:33.746Z,0.00
2019-02-06T04:27:33.731Z,0.00
2019-02-06T04:28:33.715Z,0.00
2019-02-06T04:29:33.754Z,0.00
2019-02-06T04:30:33.694Z,0.00
2019-02-06T04:31:33.693Z,0.00
2019-02-06T04:32:33.680Z,0.00
2019-02-06T04:33:33.661Z,0.00
2019-02-06T04:34:33.647Z,0.00
2019-02-06T04:35:33.660Z,0.00
2019-02-06T04:36:33.634Z,0.00
2019-02-06T04:37:33.621Z,0.00
2019-02-06T04:38:33.606Z,0.00
2019-02-06T04:39:33.598Z,0.00
2019-02-06T04:40:33.703Z,0.00
2019-02-06T04:41:33.579Z,0.00
2019-02-06T04:42:33.776Z,0.00
2019-02-06T04:43:33.599Z,0.00
2019-02-06T04:44:33.546Z,0.00
2019-02-06T04:45:33.550Z,0.00
2019-02-06T04:46:33.521Z,0.00
2019-02-06T04:47:33.526Z,0.00
2019-02-06T04:48:33.511Z,0.00
2019-02-06T04:49:33.554Z,0.00
2019-02-06T04:50:33.494Z,0.00
2019-02-06T04:51:33.548Z,0.00
2019-02-06T04:52:33.471Z,0.00
2019-02-06T04:53:33.454Z,0.00
2019-02-06T04:54:33.443Z,0.00
2019-02-06T04:55:33.447Z,0.00
2019-02-06T04:56:33.443Z,0.00
2019-02-06T04:57:33.459Z,0.00
2019-02-06T04:58:33.396Z,0.00
2019-02-06T04:59:33.390Z,0.00
2019-02-06T05:00:33.452Z,0.00
2019-02-06T05:01:33.366Z,0.00
2019-02-06T05:02:33.366Z,0.00
2019-02-06T05:03:33.550Z,0.00
2019-02-06T05:04:33.356Z,0.00
2019-02-06T05:05:33.544Z,0.00
2019-02-06T05:06:33.376Z,0.00
2019-02-06T05:07:33.320Z,0.00
2019-02-06T05:08:33.335Z,0.00
2019-02-06T05:09:33.281Z,0.00
2019-02-06T05:10:33.277Z,0.00
2019-02-06T05:11:33.371Z,0.00
2019-02-06T05:12:33.252Z,0.00
2019-02-06T05:13:33.248Z,0.00
2019-02-06T05:14:33.231Z,0.00
2019-02-06T05:15:33.223Z,0.00
2019-02-06T05:16:33.204Z,0.00
2019-02-06T05:17:33.230Z,0.00
2019-02-06T05:18:33.189Z,0.00
2019-02-06T05:19:33.233Z,0.00
2019-02-06T05:20:33.174Z,0.00
2019-02-06T05:21:33.159Z,0.00
2019-02-06T05:22:33.144Z,0.00
2019-02-06T05:23:33.162Z,0.00
2019-02-06T05:24:33.138Z,0.00
2019-02-06T05:25:33.243Z,0.00
2019-02-06T05:26:33.128Z,0.00
2019-02-06T05:27:33.170Z,0.00
2019-02-06T05:28:33.086Z,0.00
2019-02-06T05:29:33.161Z,0.00
2019-02-06T05:30:33.072Z,0.00
2019-02-06T05:31:33.079Z,0.00
2019-02-06T05:32:33.098Z,0.00
2019-02-06T05:33:33.034Z,0.00
2019-02-06T05:34:33.029Z,0.00
2019-02-06T05:35:33.020Z,0.00
2019-02-06T05:36:32.999Z,0.00
2019-02-06T05:37:33.015Z,0.00
2019-02-06T05:38:33.019Z,0.00
2019-02-06T05:39:32.965Z,0.00
2019-02-06T05:40:32.960Z,0.00
2019-02-06T05:41:32.952Z,0.00
2019-02-06T05:42:32.934Z,0.00
2019-02-06T05:43:32.962Z,0.00
2019-02-06T05:44:32.921Z,0.00
2019-02-06T05:45:32.905Z,0.00
2019-02-06T05:46:32.969Z,0.00
2019-02-06T05:47:32.888Z,0.00
2019-02-06T05:48:32.877Z,0.00
2019-02-06T05:49:32.858Z,0.00
2019-02-06T05:50:32.874Z,0.00
2019-02-06T05:51:32.874Z,0.00
2019-02-06T05:52:32.834Z,0.00
2019-02-06T05:53:32.821Z,0.00
2019-02-06T05:54:32.859Z,0.00
2019-02-06T05:55:32.833Z,0.00
2019-02-06T05:56:32.800Z,0.00
2019-02-06T05:57:32.804Z,0.00
2019-02-06T05:58:32.776Z,0.00
2019-02-06T05:59:32.759Z,0.00
2019-02-06T06:00:32.852Z,0.00
2019-02-06T06:01:32.747Z,0.00
2019-02-06T06:02:32.736Z,0.00
2019-02-06T06:03:32.766Z,0.00
2019-02-06T06:04:32.705Z,0.00
2019-02-06T06:05:32.702Z,0.00
2019-02-06T06:06:32.977Z,0.00
2019-02-06T06:07:44.170Z,0.00
2019-02-06T06:08:33.691Z,0.00
2019-02-06T06:09:32.655Z,0.00
2019-02-06T06:10:32.724Z,0.00
2019-02-06T06:11:32.640Z,0.00
2019-02-06T06:12:32.631Z,0.00
2019-02-06T06:13:32.613Z,0.00
2019-02-06T06:14:32.676Z,0.00
2019-02-06T06:15:32.587Z,0.00
2019-02-06T06:16:32.601Z,0.00
2019-02-06T06:17:32.590Z,0.00
2019-02-06T06:18:32.561Z,0.00
2019-02-06T06:19:32.547Z,0.00
2019-02-06T06:20:32.595Z,0.00
2019-02-06T06:21:32.541Z,0.00
2019-02-06T06:22:32.518Z,0.00
2019-02-06T06:23:32.515Z,0.00
2019-02-06T06:24:32.533Z,0.00
2019-02-06T06:25:32.548Z,0.00
2019-02-06T06:26:32.492Z,0.00
2019-02-06T06:27:32.668Z,0.00
2019-02-06T06:28:32.454Z,0.00
2019-02-06T06:29:32.518Z,0.00
2019-02-06T06:30:32.562Z,0.00
2019-02-06T06:31:32.442Z,0.00
2019-02-06T06:32:32.408Z,0.00
2019-02-06T06:33:32.403Z,0.00
2019-02-06T06:34:32.389Z,0.00
2019-02-06T06:35:32.428Z,0.00
2019-02-06T06:36:32.392Z,0.00
2019-02-06T06:37:32.361Z,0.00
2019-02-06T06:38:32.348Z,0.00
2019-02-06T06:39:32.352Z,0.00
2019-02-06T06:40:32.329Z,0.00
2019-02-06T06:41:32.393Z,0.00
2019-02-06T06:42:32.334Z,0.00
2019-02-06T06:43:32.358Z,0.00
2019-02-06T06:44:32.285Z,0.00
2019-02-06T06:45:32.275Z,0.00
2019-02-06T06:46:32.261Z,0.00
2019-02-06T06:47:32.254Z,0.00
2019-02-06T06:48:32.608Z,0.00
2019-02-06T06:49:32.231Z,0.00
2019-02-06T06:50:32.226Z,0.00
2019-02-06T06:51:32.215Z,0.00
2019-02-06T06:52:32.221Z,0.00
2019-02-06T06:53:32.198Z,0.00
2019-02-06T06:54:32.241Z,0.00
2019-02-06T06:55:35.104Z,0.00
2019-02-06T06:56:32.155Z,0.00
2019-02-06T06:57:32.161Z,0.00
2019-02-06T06:58:32.173Z,0.00
2019-02-06T06:59:32.173Z,0.00
2019-02-06T07:00:32.117Z,0.00
2019-02-06T07:01:32.107Z,0.00
2019-02-06T07:02:32.428Z,0.00
2019-02-06T07:03:32.089Z,0.00
2019-02-06T07:04:32.085Z,0.00
2019-02-06T07:05:32.127Z,5.62
2019-02-06T07:06:32.057Z,5.62
2019-02-06T07:07:32.052Z,5.62
2019-02-06T07:08:32.048Z,5.62
2019-02-06T07:09:32.218Z,5.62
2019-02-06T07:10:32.041Z,5.62
2019-02-06T07:11:32.004Z,5.62
2019-02-06T07:12:31.992Z,5.62
2019-02-06T07:13:31.984Z,5.62
2019-02-06T07:14:31.985Z,11.25
2019-02-06T07:15:31.958Z,11.25
2019-02-06T07:16:32.050Z,11.25
2019-02-06T07:17:31.963Z,11.25
2019-02-06T07:18:31.932Z,11.25
2019-02-06T07:19:31.916Z,11.25
2019-02-06T07:20:31.908Z,11.25
2019-02-06T07:21:31.896Z,11.25
2019-02-06T07:22:31.950Z,16.88
2019-02-06T07:23:31.876Z,16.88
2019-02-06T07:24:31.864Z,16.88
2019-02-06T07:25:31.943Z,16.88
2019-02-06T07:26:31.841Z,16.88
2019-02-06T07:27:31.831Z,16.88
2019-02-06T07:28:31.838Z,22.50
2019-02-06T07:29:31.857Z,22.50
2019-02-06T07:30:31.850Z,22.50
2019-02-06T07:31:31.790Z,22.50
2019-02-06T07:32:31.776Z,22.50
2019-02-06T07:33:31.775Z,28.12
2019-02-06T07:34:31.780Z,28.12
2019-02-06T07:35:31.749Z,28.12
2019-02-06T07:36:31.766Z,28.12
2019-02-06T07:37:31.736Z,28.12
2019-02-06T07:38:31.716Z,28.12
2019-02-06T07:39:31.706Z,33.75
2019-02-06T07:40:31.713Z,33.75
2019-02-06T07:41:31.791Z,33.75
2019-02-06T07:42:31.701Z,33.75
2019-02-06T07:43:31.673Z,33.75
2019-02-06T07:44:31.650Z,33.75
2019-02-06T07:45:31.643Z,39.38
2019-02-06T07:46:31.649Z,39.38
2019-02-06T07:47:31.638Z,39.38
2019-02-06T07:48:31.724Z,39.38
2019-02-06T07:49:31.597Z,39.38
2019-02-06T07:50:31.590Z,45.00
2019-02-06T07:51:31.576Z,45.00
2019-02-06T07:52:31.591Z,45.00
2019-02-06T07:53:31.609Z,45.00
2019-02-06T07:54:31.545Z,45.00
2019-02-06T07:55:31.543Z,50.62
2019-02-06T07:56:31.525Z,50.62
2019-02-06T07:57:31.533Z,50.62
2019-02-06T07:58:31.509Z,50.62
2019-02-06T07:59:31.533Z,50.62
2019-02-06T08:00:31.502Z,50.62
2019-02-06T08:01:31.472Z,50.62
2019-02-06T08:02:31.535Z,50.62
2019-02-06T08:03:31.453Z,56.25
2019-02-06T08:04:31.449Z,56.25
2019-02-06T08:05:31.492Z,56.25
2019-02-06T08:06:31.433Z,56.25
2019-02-06T08:07:31.410Z,56.25
2019-02-06T08:08:36.064Z,61.88
2019-02-06T08:09:32.401Z,61.88
2019-02-06T08:10:31.388Z,61.88
2019-02-06T08:11:31.410Z,61.88
2019-02-06T08:12:31.380Z,61.88
2019-02-06T08:13:31.363Z,61.88
2019-02-06T08:14:31.346Z,61.88
2019-02-06T08:15:31.324Z,67.50
2019-02-06T08:16:31.320Z,67.50
2019-02-06T08:17:31.335Z,67.50
2019-02-06T08:18:31.304Z,67.50
2019-02-06T08:19:31.317Z,67.50
2019-02-06T08:20:31.278Z,67.50
2019-02-06T08:21:31.268Z,73.12
2019-02-06T08:22:31.260Z,73.12
2019-02-06T08:23:31.289Z,73.12
2019-02-06T08:24:31.240Z,73.12
2019-02-06T08:25:31.246Z,73.12
2019-02-06T08:26:31.220Z,73.12
2019-02-06T08:27:31.204Z,73.12
2019-02-06T08:28:31.192Z,73.12
2019-02-06T08:29:31.214Z,73.12
2019-02-06T08:30:31.219Z,73.12
2019-02-06T08:31:31.175Z,73.12
2019-02-06T08:32:31.173Z,73.12
2019-02-06T08:33:31.205Z,73.12
2019-02-06T08:34:31.134Z,78.75
2019-02-06T08:35:31.129Z,78.75
2019-02-06T08:36:31.172Z,78.75
2019-02-06T08:37:31.116Z,78.75
2019-02-06T08:38:31.110Z,78.75
2019-02-06T08:39:31.082Z,78.75
2019-02-06T08:40:31.078Z,78.75
2019-02-06T08:41:31.068Z,78.75
2019-02-06T08:42:31.102Z,78.75
2019-02-06T08:43:31.056Z,78.75
2019-02-06T08:44:31.031Z,78.75
2019-02-06T08:45:31.024Z,84.38
2019-02-06T08:46:31.072Z,84.38
2019-02-06T08:47:30.997Z,84.38
2019-02-06T08:48:31.020Z,84.38
2019-02-06T08:49:30.987Z,84.38
2019-02-06T08:50:30.969Z,84.38
2019-02-06T08:51:30.950Z,84.38
2019-02-06T08:52:30.938Z,84.38
2019-02-06T08:53:30.949Z,90.00
2019-02-06T08:54:30.928Z,90.00
2019-02-06T08:55:31.098Z,90.00
2019-02-06T08:56:30.894Z,90.00
2019-02-06T08:57:30.901Z,90.00
2019-02-06T08:58:30.881Z,90.00
2019-02-06T08:59:30.865Z,90.00
2019-02-06T09:00:30.859Z,90.00
2019-02-06T09:01:30.899Z,90.00
2019-02-06T09:02:30.830Z,95.62
2019-02-06T09:03:30.817Z,95.62
2019-02-06T09:04:30.813Z,95.62
2019-02-06T09:05:30.805Z,95.62
2019-02-06T09:06:30.786Z,95.62
2019-02-06T09:07:30.884Z,95.62
2019-02-06T09:08:30.773Z,95.62
2019-02-06T09:09:30.766Z,101.25
2019-02-06T09:10:30.746Z,101.25
2019-02-06T09:11:30.738Z,101.25
2019-02-06T09:12:30.719Z,101.25
2019-02-06T09:13:30.759Z,101.25
2019-02-06T09:14:30.715Z,101.25
2019-02-06T09:15:30.693Z,101.25
2019-02-06T09:16:30.897Z,101.25
2019-02-06T09:17:30.669Z,101.25
2019-02-06T09:18:30.662Z,101.25
2019-02-06T09:19:30.720Z,101.25
2019-02-06T09:20:30.642Z,101.25
2019-02-06T09:21:30.629Z,101.25
2019-02-06T09:22:30.619Z,101.25
2019-02-06T09:23:30.602Z,101.25
2019-02-06T09:24:30.593Z,101.25
2019-02-06T09:25:30.645Z,101.25
2019-02-06T09:26:33.985Z,101.25
2019-02-06T09:27:31.563Z,101.25
2019-02-06T09:28:30.549Z,101.25
2019-02-06T09:29:30.546Z,101.25
2019-02-06T09:30:30.550Z,101.25
2019-02-06T09:31:30.588Z,101.25
2019-02-06T09:32:30.513Z,106.88
2019-02-06T09:33:30.494Z,106.88
2019-02-06T09:34:30.492Z,106.88
2019-02-06T09:35:30.476Z,106.88
2019-02-06T09:36:30.463Z,106.88
2019-02-06T09:37:30.645Z,106.88
2019-02-06T09:38:30.445Z,106.88
2019-02-06T09:39:30.437Z,106.88
2019-02-06T09:40:30.422Z,106.88
2019-02-06T09:41:30.423Z,106.88
2019-02-06T09:42:30.400Z,106.88
2019-02-06T09:43:30.438Z,101.25
2019-02-06T09:44:30.377Z,101.25
2019-02-06T09:45:30.370Z,101.25
2019-02-06T09:46:30.367Z,101.25
2019-02-06T09:47:30.346Z,101.25
2019-02-06T09:48:30.352Z,106.88
2019-02-06T09:49:30.463Z,106.88
2019-02-06T09:50:30.329Z,112.50
2019-02-06T09:51:30.307Z,112.50
2019-02-06T09:52:30.297Z,118.12
2019-02-06T09:53:30.286Z,118.12
2019-02-06T09:54:30.291Z,118.12
2019-02-06T09:55:30.284Z,123.75
2019-02-06T09:56:30.253Z,123.75
2019-02-06T09:57:30.247Z,123.75
2019-02-06T09:58:30.234Z,123.75
2019-02-06T09:59:30.237Z,123.75
2019-02-06T10:00:30.219Z,123.75
2019-02-06T10:01:30.234Z,123.75
2019-02-06T10:02:30.209Z,123.75
2019-02-06T10:03:30.180Z,123.75
2019-02-06T10:04:30.183Z,123.75
2019-02-06T10:05:30.160Z,123.75
2019-02-06T10:06:30.148Z,123.75
2019-02-06T10:07:30.150Z,123.75
2019-02-06T10:08:30.128Z,123.75
2019-02-06T10:09:30.125Z,129.38
2019-02-06T10:10:30.122Z,129.38
2019-02-06T10:11:30.095Z,129.38
2019-02-06T10:12:30.088Z,135.00
2019-02-06T10:13:30.131Z,135.00
2019-02-06T10:14:30.070Z,140.62
2019-02-06T10:15:30.067Z,140.62
2019-02-06T10:16:30.136Z,146.25
2019-02-06T10:17:30.030Z,146.25
2019-02-06T10:18:30.028Z,151.88
2019-02-06T10:19:30.068Z,151.88
2019-02-06T10:20:30.224Z,151.88
2019-02-06T10:21:29.987Z,151.88
2019-02-06T10:22:29.999Z,157.50
2019-02-06T10:23:29.966Z,157.50
2019-02-06T10:24:29.964Z,157.50
2019-02-06T10:25:29.971Z,157.50
2019-02-06T10:26:29.942Z,163.12
2019-02-06T10:27:29.927Z,163.12
2019-02-06T10:28:29.942Z,168.75
2019-02-06T10:29:29.904Z,168.75
2019-02-06T10:30:29.893Z,168.75
2019-02-06T10:31:32.755Z,168.75
2019-02-06T10:32:29.917Z,168.75
2019-02-06T10:33:29.863Z,168.75
2019-02-06T10:34:29.875Z,168.75
2019-02-06T10:35:29.840Z,174.38
2019-02-06T10:36:29.830Z,174.38
2019-02-06T10:37:29.830Z,174.38
2019-02-06T10:38:29.844Z,174.38
2019-02-06T10:39:34.551Z,180.00
2019-02-06T10:40:30.853Z,174.38
2019-02-06T10:41:29.783Z,174.38
2019-02-06T10:42:29.766Z,174.38
2019-02-06T10:43:32.575Z,168.75
2019-02-06T10:44:30.788Z,168.75
2019-02-06T10:45:29.743Z,168.75
2019-02-06T10:46:29.738Z,168.75
2019-02-06T10:47:29.725Z,174.38
2019-02-06T10:48:29.709Z,174.38
2019-02-06T10:49:29.701Z,174.38
2019-02-06T10:50:29.708Z,174.38
2019-02-06T10:51:29.673Z,174.38
2019-02-06T10:52:29.686Z,174.38
2019-02-06T10:53:29.661Z,174.38
2019-02-06T10:54:29.646Z,174.38
2019-02-06T10:55:29.632Z,180.00
2019-02-06T10:56:29.634Z,174.38
2019-02-06T10:57:29.632Z,174.38
2019-02-06T10:58:29.618Z,174.38
2019-02-06T10:59:29.585Z,174.38
2019-02-06T11:00:29.981Z,174.38
2019-02-06T11:01:29.565Z,174.38
2019-02-06T11:02:29.606Z,174.38
2019-02-06T11:03:29.545Z,168.75
2019-02-06T11:04:29.538Z,174.38
2019-02-06T11:05:29.537Z,174.38
2019-02-06T11:06:29.515Z,174.38
2019-02-06T11:07:29.568Z,174.38
2019-02-06T11:08:29.531Z,174.38
2019-02-06T11:09:29.511Z,174.38
2019-02-06T11:10:29.486Z,174.38
2019-02-06T11:11:29.465Z,174.38
2019-02-06T11:12:29.450Z,174.38
2019-02-06T11:13:29.447Z,168.75
2019-02-06T11:14:29.428Z,168.75
2019-02-06T11:15:29.471Z,163.12
2019-02-06T11:16:29.415Z,163.12
2019-02-06T11:17:29.402Z,163.12
2019-02-06T11:18:29.387Z,163.12
2019-02-06T11:19:29.399Z,157.50
2019-02-06T11:20:29.368Z,157.50
2019-02-06T11:21:29.406Z,157.50
2019-02-06T11:22:29.348Z,151.88
2019-02-06T11:23:29.559Z,157.50
2019-02-06T11:24:29.331Z,157.50
2019-02-06T11:25:29.327Z,151.88
2019-02-06T11:26:29.311Z,151.88
2019-02-06T11:27:29.376Z,146.25
2019-02-06T11:28:29.288Z,146.25
2019-02-06T11:29:29.286Z,151.88
2019-02-06T11:30:29.270Z,151.88
2019-02-06T11:31:29.275Z,146.25
2019-02-06T11:32:29.239Z,135.00
2019-02-06T11:33:29.237Z,123.75
2019-02-06T11:34:29.282Z,118.12
2019-02-06T11:35:29.220Z,123.75
2019-02-06T11:36:29.207Z,118.12
2019-02-06T11:37:29.215Z,118.12
2019-02-06T11:38:29.175Z,123.75
2019-02-06T11:39:29.182Z,123.75
2019-02-06T11:40:29.228Z,123.75
2019-02-06T11:41:29.155Z,129.38
2019-02-06T11:42:29.147Z,129.38
2019-02-06T11:43:32.013Z,135.00
2019-02-06T11:44:29.115Z,140.62
2019-02-06T11:45:29.122Z,146.25
2019-02-06T11:46:29.112Z,140.62
2019-02-06T11:47:29.100Z,146.25
2019-02-06T11:48:29.079Z,151.88
2019-02-06T11:49:29.093Z,157.50
2019-02-06T11:50:29.056Z,157.50
2019-02-06T11:51:29.061Z,157.50
2019-02-06T11:52:29.059Z,151.88
2019-02-06T11:53:29.063Z,151.88
2019-02-06T11:54:29.049Z,146.25
2019-02-06T11:55:29.000Z,140.62
2019-02-06T11:56:28.986Z,135.00
2019-02-06T11:57:28.979Z,129.38
2019-02-06T11:58:28.990Z,129.38
2019-02-06T11:59:28.981Z,129.38
2019-02-06T12:00:28.962Z,135.00
2019-02-06T12:01:28.943Z,135.00
2019-02-06T12:02:37.038Z,135.00
2019-02-06T12:03:29.921Z,135.00
2019-02-06T12:04:28.921Z,135.00
2019-02-06T12:05:28.919Z,140.62
2019-02-06T12:06:28.900Z,151.88
2019-02-06T12:07:28.899Z,157.50
2019-02-06T12:08:31.098Z,157.50
2019-02-06T12:09:28.850Z,163.12
2019-02-06T12:10:28.844Z,163.12
2019-02-06T12:11:28.864Z,157.50
2019-02-06T12:12:28.851Z,146.25
2019-02-06T12:13:28.831Z,163.12
2019-02-06T12:14:28.797Z,174.38
2019-02-06T12:15:28.791Z,174.38
2019-02-06T12:16:28.964Z,174.38
2019-02-06T12:17:28.796Z,168.75
2019-02-06T12:18:28.777Z,157.50
2019-02-06T12:19:28.793Z,151.88
2019-02-06T12:20:28.731Z,157.50
2019-02-06T12:21:28.730Z,163.12
2019-02-06T12:22:28.711Z,180.00
2019-02-06T12:23:32.335Z,191.25
2019-02-06T12:24:28.713Z,202.50
2019-02-06T12:25:28.680Z,213.75
2019-02-06T12:26:28.966Z,219.38
2019-02-06T12:27:28.683Z,213.75
2019-02-06T12:28:28.653Z,208.12
2019-02-06T12:29:28.664Z,208.12
2019-02-06T12:30:28.638Z,208.12
2019-02-06T12:31:28.612Z,208.12
2019-02-06T12:32:28.631Z,213.75
2019-02-06T12:33:28.595Z,219.38
2019-02-06T12:34:28.587Z,225.00
2019-02-06T12:35:28.603Z,247.50
2019-02-06T12:36:28.561Z,236.25
2019-02-06T12:37:28.575Z,219.38
2019-02-06T12:38:28.559Z,219.38
2019-02-06T12:39:28.560Z,225.00
2019-02-06T12:40:28.518Z,213.75
2019-02-06T12:41:28.521Z,202.50
2019-02-06T12:42:28.498Z,208.12
2019-02-06T12:43:28.492Z,202.50
2019-02-06T12:44:28.479Z,202.50
2019-02-06T12:45:28.473Z,213.75
2019-02-06T12:46:28.570Z,202.50
2019-02-06T12:47:28.473Z,196.88
2019-02-06T12:48:28.433Z,196.88
2019-02-06T12:49:28.474Z,191.25
2019-02-06T12:50:28.517Z,191.25
2019-02-06T12:51:28.401Z,213.75
2019-02-06T12:52:28.417Z,213.75
2019-02-06T12:53:28.399Z,208.12
2019-02-06T12:54:28.405Z,196.88
2019-02-06T12:55:28.430Z,185.62
2019-02-06T12:56:28.345Z,185.62
2019-02-06T12:57:36.317Z,191.25
2019-02-06T12:58:29.357Z,202.50
2019-02-06T12:59:28.331Z,196.88